Time;durP1;ratioP1;P1;durP2;ratioP2;P2;SDS_P1;SDS_P2;PMS_P1;PMS_P2;Temp;Humidity;BMP_temperature;BMP_pressure;BME280_temperature;BME280_humidity;BME280_pressure;Samples;Min_cycle;Max_cycle;Signal;HPM_P1;HPM_P2
2023/10/20 00:01:32;;;;;;;11.23;7.65;;;;;;;12.49;58.59;93460.75;4944407;28;20043;-79
2023/10/20 00:04:25;;;;;;;;;;;;;;;12.60;58.66;93463.78;4936686;28;20601;-77
2023/10/20 00:07:17;;;;;;;9.93;7.72;;;;;;;12.44;58.12;93421.75;4945870;28;19930;-78
2023/10/20 00:10:28;;;;;;;7.32;6.32;;;;;;;12.77;57.36;93458.19;4948061;28;20073;-79
2023/10/20 00:13:20;;;;;;;12.25;7.70;;;;;;;12.69;57.64;93453.78;4942604;28;20052;-79
2023/10/20 00:16:16;;;;;;;8.27;7.30;;;;;;;12.60;57.44;93437.88;4943583;28;20053;-78
2023/10/20 00:19:14;;;;;;;11.35;7.25;;;;;;;11.94;58.45;93363.38;4949242;28;20053;-79
2023/10/20 00:21:59;;;;;;;7.90;7.10;;;;;;;12.53;58.12;93439.50;4960940;28;20034;-77
2023/10/20 00:24:47;;;;;;;8.13;6.88;;;;;;;12.22;58.32;93397.41;4962754;28;20381;-78
2023/10/20 00:27:46;;;;;;;9.93;7.03;;;;;;;12.56;58.32;93436.97;4957367;28;20038;-78
2023/10/20 00:30:36;;;;;;;8.13;6.88;;;;;;;12.33;59.20;93430.50;4945163;28;20137;-78
2023/10/20 00:33:33;;;;;;;10.85;6.90;;;;;;;12.49;58.41;93423.41;4941873;28;20038;-78
2023/10/20 00:36:43;;;;;;;8.27;6.15;;;;;;;12.39;58.34;93413.19;4958380;28;20060;-80
2023/10/20 00:39:43;;;;;;;9.10;6.15;;;;;;;12.55;58.27;93427.41;4959700;28;20046;-78
2023/10/20 00:42:44;;;;;;;6.75;6.10;;;;;;;12.52;58.61;93433.38;4955530;28;20367;-77
2023/10/20 00:45:36;;;;;;;10.25;5.80;;;;;;;12.58;58.60;93421.41;4962924;28;20042;-78
2023/10/20 00:48:44;;;;;;;8.18;5.72;;;;;;;12.03;58.89;93337.41;4974035;28;20085;-77
2023/10/20 00:51:40;;;;;;;6.35;4.15;;;;;;;12.54;59.02;93409.84;4968988;28;20056;-79
2023/10/20 00:54:50;;;;;;;5.40;4.60;;;;;;;12.61;59.16;93423.44;4937997;28;20034;-77
2023/10/20 00:57:43;;;;;;;6.15;4.93;;;;;;;12.50;59.50;93413.50;4970933;28;20059;-77
2023/10/20 01:00:49;;;;;;;6.65;4.88;;;;;;;12.27;59.81;93405.94;4979414;28;20038;-76
2023/10/20 01:03:37;;;;;;;6.03;4.47;;;;;;;11.84;59.64;93334.50;4962891;28;20564;-78
2023/10/20 01:06:35;;;;;;;5.45;4.85;;;;;;;12.34;59.35;93400.06;4962788;28;20087;-77
2023/10/20 01:09:40;;;;;;;6.85;4.97;;;;;;;12.18;59.20;93380.50;4973855;28;20125;-79
2023/10/20 01:12:57;;;;;;;6.00;5.35;;;;;;;12.20;58.92;93373.75;4968845;28;20042;-79
2023/10/20 01:15:53;;;;;;;7.43;5.22;;;;;;;11.83;58.72;93310.88;4974675;28;20064;-78
2023/10/20 01:18:57;;;;;;;7.15;4.93;;;;;;;12.17;59.23;93385.06;4971765;28;20045;-77
2023/10/20 01:21:52;;;;;;;6.90;4.90;;;;;;;12.45;58.71;93412.63;4973019;28;20081;-78
2023/10/20 01:24:50;;;;;;;6.25;5.65;;;;;;;12.15;58.98;93383.84;4971883;28;20048;-79
2023/10/20 01:27:44;;;;;;;6.60;5.97;;;;;;;12.24;59.02;93401.28;4964651;28;20072;-79
2023/10/20 01:30:33;;;;;;;9.53;6.47;;;;;;;12.07;58.78;93366.06;4963563;28;20042;-78
2023/10/20 01:33:41;;;;;;;6.00;5.18;;;;;;;12.00;58.42;93359.41;4969415;28;20042;-77
2023/10/20 01:36:37;;;;;;;9.68;6.32;;;;;;;12.34;58.87;93402.72;4962716;28;20045;-78
2023/10/20 01:39:50;;;;;;;6.20;5.43;;;;;;;12.32;59.01;93386.31;4948226;28;20049;-78
2023/10/20 01:42:44;;;;;;;6.85;5.70;;;;;;;12.23;59.03;93377.59;4949640;28;20053;-76
2023/10/20 01:45:32;;;;;;;11.77;6.38;;;;;;;11.57;58.51;93271.22;4941207;28;20042;-79
2023/10/20 01:48:33;;;;;;;11.60;7.45;;;;;;;12.19;58.51;93369.50;4957070;28;20125;-77
2023/10/20 01:51:30;;;;;;;16.73;9.20;;;;;;;12.21;58.91;93359.31;4969404;28;20057;-77
2023/10/20 01:54:17;;;;;;;17.75;8.63;;;;;;;12.28;59.10;93366.72;4969688;28;20081;-79
2023/10/20 01:57:13;;;;;;;16.95;9.05;;;;;;;12.08;59.30;93343.66;4945855;28;20056;-79
2023/10/20 02:00:15;;;;;;;24.05;10.90;;;;;;;12.32;59.40;93380.97;4973296;28;20500;-78
2023/10/20 02:03:36;;;;;;;18.38;9.63;;;;;;;12.22;59.82;93395.53;4965351;28;20140;-78
2023/10/20 02:06:33;;;;;;;14.93;8.57;;;;;;;12.26;59.07;93414.28;4936960;28;20042;-78
2023/10/20 02:09:31;;;;;;;13.68;7.38;;;;;;;12.10;59.49;93405.38;4959363;28;20042;-79
2023/10/20 02:12:35;;;;;;;8.48;6.97;;;;;;;11.95;60.42;93394.25;4955094;28;20081;-78
2023/10/20 02:16:07;;;;;;;7.03;5.20;;;;;;;11.94;61.24;93390.03;4960613;28;20109;-77
2023/10/20 02:18:56;;;;;;;5.18;4.40;;;;;;;11.81;61.15;93353.06;4959793;28;20137;-77
2023/10/20 02:21:48;;;;;;;5.95;5.03;;;;;;;11.88;60.76;93353.28;4938329;28;20036;-78
2023/10/20 02:24:34;;;;;;;8.25;5.82;;;;;;;12.12;60.50;93373.84;4953595;28;20049;-76
2023/10/20 02:27:30;;;;;;;9.73;6.60;;;;;;;12.20;60.07;93365.75;4949340;28;20102;-78
2023/10/20 02:30:32;;;;;;;9.35;5.72;;;;;;;11.93;59.64;93348.50;4970180;28;20053;-79
2023/10/20 02:33:30;;;;;;;9.13;6.65;;;;;;;12.13;59.73;93394.03;4957026;28;20042;-77
2023/10/20 02:36:25;;;;;;;10.77;6.95;;;;;;;11.27;60.06;93291.13;4954363;28;20053;-77
2023/10/20 02:39:27;;;;;;;11.20;6.70;;;;;;;11.77;60.10;93355.59;4973057;28;20128;-77
2023/10/20 02:42:43;;;;;;;9.30;6.43;;;;;;;11.85;60.09;93384.03;4969648;28;20054;-79
2023/10/20 02:45:36;;;;;;;8.23;5.70;;;;;;;11.98;59.39;93385.59;4944425;28;20100;-78
2023/10/20 02:48:35;;;;;;;8.93;5.70;;;;;;;11.88;59.29;93362.03;4951618;28;20350;-76
2023/10/20 02:51:32;;;;;;;8.57;5.82;;;;;;;11.75;59.42;93347.16;4970445;28;20038;-79
2023/10/20 02:54:29;;;;;;;9.35;6.82;;;;;;;11.99;58.69;93389.81;4967013;28;20042;-78
2023/10/20 02:57:15;;;;;;;12.77;6.35;;;;;;;11.91;59.06;93365.94;4914364;28;20129;-78
2023/10/20 03:00:14;;;;;;;8.68;6.45;;;;;;;11.90;59.51;93354.50;4969405;28;20027;-78
2023/10/20 03:03:12;;;;;;;8.60;5.82;;;;;;;12.13;59.37;93389.50;4957492;28;20129;-76
2023/10/20 03:06:02;;;;;;;9.48;7.28;;;;;;;11.86;59.36;93345.63;4945278;28;20068;-77
2023/10/20 03:09:00;;;;;;;13.93;6.57;;;;;;;12.22;59.30;93386.75;4931953;28;20038;-78
2023/10/20 03:11:38;;;;;;;;;;;;;;;12.21;59.06;93366.53;4961771;28;20087;-79
2023/10/20 03:14:33;;;;;;;14.93;8.18;;;;;;;12.01;58.93;93350.31;4973652;28;19928;-77
2023/10/20 03:17:34;;;;;;;13.82;7.45;;;;;;;12.32;58.91;93375.63;4943913;28;20114;-78
2023/10/20 03:20:36;;;;;;;17.08;7.90;;;;;;;12.25;58.57;93372.75;4963207;28;20039;-78
2023/10/20 03:23:32;;;;;;;13.55;7.78;;;;;;;12.21;58.96;93382.50;4957198;28;20074;-79
2023/10/20 03:26:43;;;;;;;7.75;6.45;;;;;;;12.23;59.13;93372.28;4971392;28;20141;-78
2023/10/20 03:29:50;;;;;;;8.70;6.80;;;;;;;12.19;58.83;93355.41;4959049;28;20038;-79
2023/10/20 03:33:11;;;;;;;7.78;6.05;;;;;;;12.32;59.06;93365.72;4955101;28;20079;-77
2023/10/20 03:36:27;;;;;;;6.40;5.45;;;;;;;11.87;60.29;93336.53;4947340;28;20042;-78
2023/10/20 03:39:33;;;;;;;9.05;5.82;;;;;;;11.90;59.93;93333.19;4967480;28;20117;-76
2023/10/20 03:42:42;;;;;;;7.30;5.47;;;;;;;11.92;59.82;93338.97;4943999;28;20120;-79
2023/10/20 03:45:40;;;;;;;18.55;7.90;;;;;;;11.73;59.78;93314.75;4973270;28;20046;-77
2023/10/20 03:48:55;;;;;;;7.72;6.05;;;;;;;11.86;60.35;93342.97;4962574;28;20046;-77
2023/10/20 03:51:59;;;;;;;7.45;5.28;;;;;;;11.86;60.15;93329.63;4973279;28;20085;-78
2023/10/20 03:55:00;;;;;;;11.93;6.22;;;;;;;11.49;60.19;93253.44;4956227;28;20047;-78
2023/10/20 03:58:09;;;;;;;10.35;5.88;;;;;;;10.67;60.01;93135.56;4960870;28;20108;-78
2023/10/20 04:01:14;;;;;;;7.93;5.53;;;;;;;11.59;61.14;93301.75;4950566;28;20042;-79
2023/10/20 04:04:09;;;;;;;8.45;6.03;;;;;;;11.91;60.73;93336.63;4976422;28;20578;-78
2023/10/20 04:07:08;;;;;;;9.15;5.95;;;;;;;11.67;60.72;93297.44;4979823;28;20054;-77
2023/10/20 04:10:19;;;;;;;7.40;5.70;;;;;;;11.89;60.28;93338.84;4958103;28;20053;-77
2023/10/20 04:13:14;;;;;;;8.55;6.30;;;;;;;11.88;59.54;93340.72;4977430;28;20504;-78
2023/10/20 04:16:23;;;;;;;7.32;5.53;;;;;;;11.67;59.20;93309.97;4941138;28;20150;-77
2023/10/20 04:19:29;;;;;;;7.90;5.65;;;;;;;11.90;59.90;93343.84;4976343;28;20547;-78
2023/10/20 04:22:38;;;;;;;5.53;5.03;;;;;;;11.59;61.11;93309.72;4951376;28;20034;-80
2023/10/20 04:25:33;;;;;;;9.52;5.63;;;;;;;11.68;61.16;93324.84;4958017;28;20117;-77
2023/10/20 04:28:43;;;;;;;21.45;7.97;;;;;;;11.55;62.06;93362.09;4941730;28;20121;-79
2023/10/20 04:44:58;;;;;;;9.02;5.97;;;;;;;11.34;61.61;93355.25;4967965;28;20108;-78
2023/10/20 04:54:07;;;;;;;9.13;5.68;;;;;;;11.52;61.94;93338.03;4965233;28;20037;-79
2023/10/20 04:59:54;;;;;;;8.48;5.70;;;;;;;11.24;62.86;93350.34;4972743;28;20140;-79
2023/10/20 05:08:59;;;;;;;9.02;5.60;;;;;;;11.45;62.24;93332.41;4942962;28;20050;-80
2023/10/20 05:11:42;;;;;;;7.63;5.93;;;;;;;11.09;62.90;93293.97;4947754;28;20105;-80
2023/10/20 05:14:57;;;;;;;7.82;5.43;;;;;;;11.59;62.85;93355.00;4951900;28;20090;-79
2023/10/20 05:17:54;;;;;;;8.63;5.15;;;;;;;11.69;62.17;93364.47;4939129;28;20082;-79
2023/10/20 05:20:55;;;;;;;8.77;4.57;;;;;;;11.16;62.59;93304.84;4962661;28;20046;-79
2023/10/20 05:23:55;;;;;;;7.15;4.80;;;;;;;11.42;62.94;93333.09;4968564;28;20130;-79
2023/10/20 05:26:50;;;;;;;12.23;5.35;;;;;;;11.60;62.50;93361.09;4973055;28;20034;-80
2023/10/20 05:29:47;;;;;;;7.18;5.25;;;;;;;11.57;62.20;93367.09;4960349;28;20045;-78
2023/10/20 05:32:44;;;;;;;8.73;5.53;;;;;;;11.69;62.94;93385.75;4947948;28;20108;-79
2023/10/20 05:35:49;;;;;;;12.20;6.45;;;;;;;11.63;63.90;93389.00;4944923;28;20081;-75
2023/10/20 05:38:54;;;;;;;10.57;6.10;;;;;;;11.46;63.36;93356.06;4961929;28;21027;-79
2023/10/20 05:42:21;;;;;;;8.75;6.53;;;;;;;11.92;62.96;93400.25;4967843;28;20046;-78
2023/10/20 05:45:32;;;;;;;19.77;7.97;;;;;;;11.56;64.16;93394.84;4960780;28;20412;-80
2023/10/20 05:48:06;;;;;;;21.77;9.90;;;;;;;11.57;63.54;93373.22;4968355;28;20042;-79
2023/10/20 05:51:08;;;;;;;18.10;10.32;;;;;;;11.68;62.82;93392.22;4959642;28;20540;-77
2023/10/20 05:54:06;;;;;;;19.85;11.27;;;;;;;11.86;62.60;93398.91;4950908;28;20053;-79
2023/10/20 05:56:53;;;;;;;20.60;12.35;;;;;;;11.76;61.86;93379.91;4955228;28;20124;-78
2023/10/20 06:02:46;;;;;;;21.30;12.75;;;;;;;11.84;61.22;93393.13;4972396;28;20887;-79
2023/10/20 06:05:46;;;;;;;16.10;12.70;;;;;;;11.96;61.56;93395.81;4954327;28;20046;-79
2023/10/20 06:08:45;;;;;;;25.30;12.43;;;;;;;12.16;62.09;93402.19;4958313;28;20080;-77
2023/10/20 06:11:50;;;;;;;21.27;11.70;;;;;;;12.14;61.98;93364.41;4960823;28;20100;-77
2023/10/20 06:14:41;;;;;;;17.02;10.30;;;;;;;12.21;62.05;93343.31;4947744;28;20054;-79
2023/10/20 06:17:45;;;;;;;19.48;10.48;;;;;;;12.77;61.50;93391.50;4966070;28;20038;-79
2023/10/20 06:20:50;;;;;;;14.50;10.00;;;;;;;11.93;62.07;93279.22;4957181;28;20042;-76
2023/10/20 06:24:38;;;;;;;14.07;9.75;;;;;;;12.50;63.50;93376.16;4975703;28;20078;-75
2023/10/20 06:27:39;;;;;;;20.98;14.13;;;;;;;12.28;62.92;93311.50;4949654;28;20026;-77
2023/10/20 06:35:12;;;;;;;25.00;14.70;;;;;;;12.55;62.05;93330.59;4944992;28;20787;-78
2023/10/20 06:40:47;;;;;;;19.02;12.70;;;;;;;13.18;62.44;93390.41;4964133;28;20044;-76
2023/10/20 06:44:00;;;;;;;19.98;11.90;;;;;;;13.37;62.06;93393.22;4947940;28;20158;-77
2023/10/20 06:47:11;;;;;;;20.25;12.65;;;;;;;13.21;62.85;93387.81;4939273;28;20081;-75
2023/10/20 06:50:22;;;;;;;23.15;12.18;;;;;;;13.37;62.24;93398.56;4953862;28;20401;-77
2023/10/20 06:53:00;;;;;;;22.90;11.98;;;;;;;13.54;62.73;93400.97;4968811;28;20045;-78
2023/10/20 06:55:49;;;;;;;27.20;14.13;;;;;;;13.33;62.47;93369.09;4985406;28;20019;-78
2023/10/20 06:59:06;;;;;;;24.38;12.23;;;;;;;13.85;61.54;93418.19;4962017;28;20157;-76
2023/10/20 07:02:00;;;;;;;30.15;9.02;;;;;;;14.01;59.65;93410.97;4953019;28;20048;-77
2023/10/20 07:05:05;;;;;;;12.23;8.40;;;;;;;13.90;60.40;93356.47;4970318;28;20023;-77
2023/10/20 07:08:05;;;;;;;13.55;8.85;;;;;;;13.96;59.69;93397.84;4930221;28;20112;-78
2023/10/20 07:11:04;;;;;;;12.52;8.80;;;;;;;14.08;58.35;93405.81;4966528;28;20030;-77
2023/10/20 07:14:07;;;;;;;10.80;8.02;;;;;;;14.04;59.22;93407.59;4944938;28;20054;-75
2023/10/20 07:17:13;;;;;;;11.50;7.30;;;;;;;13.89;58.95;93403.00;4969598;28;20030;-76
2023/10/20 07:20:13;;;;;;;7.90;5.97;;;;;;;14.03;58.32;93401.47;4942969;28;20057;-78
2023/10/20 07:23:18;;;;;;;9.45;7.05;;;;;;;14.06;58.13;93387.44;4969997;28;20031;-76
2023/10/20 07:26:10;;;;;;;10.00;7.05;;;;;;;13.88;59.69;93399.59;4945063;28;20050;-78
2023/10/20 07:29:44;;;;;;;17.73;7.72;;;;;;;13.66;59.72;93395.56;4959175;28;20539;-77
2023/10/20 07:32:46;;;;;;;13.43;7.25;;;;;;;13.62;60.10;93384.00;4964836;28;20053;-76
2023/10/20 07:35:52;;;;;;;11.20;7.72;;;;;;;13.75;59.25;93414.13;4961562;28;20148;-78
2023/10/20 07:38:44;;;;;;;10.02;7.30;;;;;;;13.67;58.14;93374.97;4967745;28;20049;-78
2023/10/20 07:41:52;;;;;;;11.40;6.97;;;;;;;13.66;59.26;93422.28;4971434;28;20033;-77
2023/10/20 07:44:58;;;;;;;12.40;8.68;;;;;;;13.32;60.85;93425.50;4965599;28;20056;-78
2023/10/20 07:48:11;;;;;;;26.00;9.45;;;;;;;13.21;61.04;93384.38;4976530;28;20034;-77
2023/10/20 07:51:16;;;;;;;16.52;7.97;;;;;;;13.50;61.18;93418.75;4964355;28;20081;-77
2023/10/20 07:54:30;;;;;;;17.63;8.88;;;;;;;13.86;59.70;93417.84;4966642;28;20081;-76
2023/10/20 07:57:35;;;;;;;9.55;7.95;;;;;;;13.75;59.48;93414.91;4952688;28;20223;-78
2023/10/20 08:00:21;;;;;;;17.25;8.57;;;;;;;13.59;60.08;93416.75;4969355;28;20125;-77
2023/10/20 08:03:16;;;;;;;13.30;7.53;;;;;;;13.81;59.15;93414.66;4953468;28;20042;-78
2023/10/20 08:06:31;;;;;;;10.45;7.72;;;;;;;13.79;59.31;93398.19;4961589;28;20400;-77
2023/10/20 08:09:28;;;;;;;13.07;8.77;;;;;;;14.01;58.21;93411.75;4927013;28;20072;-78
2023/10/20 08:12:14;;;;;;;17.50;7.45;;;;;;;13.27;58.37;93277.00;4973076;28;20102;-78
2023/10/20 08:15:23;;;;;;;13.95;7.68;;;;;;;14.01;57.95;93405.63;4963381;28;20050;-78
2023/10/20 08:18:21;;;;;;;13.73;7.47;;;;;;;12.89;58.97;93226.03;4960166;28;20050;-78
2023/10/20 08:21:36;;;;;;;10.57;7.93;;;;;;;13.58;58.44;93318.22;4971169;28;20042;-78
2023/10/20 08:24:53;;;;;;;14.07;8.55;;;;;;;14.48;58.08;93397.59;4976567;28;20382;-78
2023/10/20 08:28:15;;;;;;;16.60;8.70;;;;;;;14.86;56.25;93405.75;4975984;28;20033;-77
2023/10/20 08:31:46;;;;;;;15.38;7.45;;;;;;;14.94;55.67;93420.09;4972479;28;20054;-77
2023/10/20 08:34:41;;;;;;;15.63;8.25;;;;;;;15.13;55.14;93412.09;4956385;28;20495;-78
2023/10/20 08:37:53;;;;;;;13.20;7.72;;;;;;;15.31;54.24;93381.06;4957942;28;20142;-77
2023/10/20 08:40:51;;;;;;;13.60;8.10;;;;;;;15.44;54.59;93393.25;4925771;28;20563;-77
2023/10/20 08:43:46;;;;;;;14.55;8.23;;;;;;;15.44;54.71;93377.16;4936371;28;20112;-78
2023/10/20 08:47:04;;;;;;;14.18;8.02;;;;;;;15.31;54.49;93362.31;4962740;28;20026;-77
2023/10/20 08:50:10;;;;;;;27.15;9.85;;;;;;;15.54;53.94;93367.00;4989831;28;20037;-78
2023/10/20 08:53:21;;;;;;;32.90;9.40;;;;;;;15.00;54.08;93311.59;4963518;28;20062;-76
2023/10/20 08:56:14;;;;;;;10.15;6.95;;;;;;;15.23;54.09;93384.75;4965917;28;20125;-77
2023/10/20 08:59:31;;;;;;;19.75;8.70;;;;;;;15.21;53.98;93400.38;4948232;28;20031;-77
2023/10/20 09:02:31;;;;;;;17.63;8.45;;;;;;;15.34;54.15;93393.00;4975061;28;20038;-76
2023/10/20 09:05:40;;;;;;;24.55;9.38;;;;;;;15.41;53.30;93393.13;4965682;28;20053;-77
2023/10/20 09:08:50;;;;;;;19.10;8.70;;;;;;;15.58;53.96;93391.97;4961043;28;20050;-77
2023/10/20 09:11:57;;;;;;;;;;;;;;;15.71;52.42;93393.34;4953712;28;20050;-78
2023/10/20 09:15:06;;;;;;;15.45;8.40;;;;;;;15.84;52.54;93386.72;4969210;28;19917;-78
2023/10/20 09:18:36;;;;;;;16.25;7.35;;;;;;;15.61;53.29;93377.84;4967444;28;20042;-75
2023/10/20 09:21:59;;;;;;;13.63;7.80;;;;;;;15.10;53.83;93332.44;4954980;28;20049;-77
2023/10/20 09:25:13;;;;;;;14.55;7.80;;;;;;;15.70;53.37;93370.34;4968562;28;20045;-77
2023/10/20 09:28:28;;;;;;;14.43;8.32;;;;;;;15.82;52.66;93362.94;4960946;28;20049;-78
2023/10/20 09:31:42;;;;;;;12.45;7.00;;;;;;;15.71;52.28;93361.97;4971301;28;20038;-79
2023/10/20 09:34:56;;;;;;;15.18;8.23;;;;;;;15.95;52.17;93347.44;4962585;28;20111;-76
2023/10/20 09:41:44;;;;;;;11.73;7.70;;;;;;;15.77;52.48;93324.91;4928290;28;20595;-77
2023/10/20 10:11:07;;;;;;;13.82;6.60;;;;;;;16.40;50.13;93284.16;4886783;29;20165;-76
2023/10/20 10:14:15;;;;;;;12.30;6.93;;;;;;;16.31;50.13;93257.59;4891904;29;20106;-77
2023/10/20 10:17:40;;;;;;;13.95;7.43;;;;;;;16.58;50.14;93299.38;4883888;28;20036;-77
2023/10/20 10:24:41;;;;;;;13.80;7.15;;;;;;;16.54;50.59;93273.63;4926905;28;20045;-77
2023/10/20 10:28:05;;;;;;;11.35;6.68;;;;;;;16.47;50.42;93260.91;4935710;28;20039;-77
2023/10/20 10:34:34;;;;;;;20.27;6.55;;;;;;;16.88;49.19;93272.53;4879284;28;20054;-78
2023/10/20 10:37:55;;;;;;;15.48;6.15;;;;;;;16.88;49.32;93234.94;4930426;28;20034;-76
2023/10/20 10:41:25;;;;;;;12.57;5.40;;;;;;;17.54;49.19;93297.88;4892787;28;20072;-78
2023/10/20 10:44:48;;;;;;;11.30;5.10;;;;;;;17.54;48.34;93271.00;4939163;28;20039;-77
2023/10/20 10:48:19;;;;;;;12.55;6.28;;;;;;;17.50;50.73;93280.97;4939786;28;20350;-76
2023/10/20 10:51:32;;;;;;;13.63;6.53;;;;;;;17.34;48.81;93266.97;4926497;28;20042;-77
2023/10/20 10:54:34;;;;;;;10.52;5.00;;;;;;;17.53;50.76;93290.97;4909906;28;20051;-77
2023/10/20 10:57:41;;;;;;;13.68;5.85;;;;;;;17.54;48.36;93260.25;4949355;28;20039;-77
2023/10/20 11:00:59;;;;;;;14.30;5.10;;;;;;;17.64;48.13;93285.69;4941844;28;20038;-78
2023/10/20 11:04:15;;;;;;;8.77;5.07;;;;;;;17.76;48.36;93286.19;4938069;28;20058;-79
2023/10/20 11:07:14;;;;;;;12.77;6.05;;;;;;;17.80;46.76;93254.72;4931532;28;20047;-77
2023/10/20 11:10:10;;;;;;;16.30;5.55;;;;;;;17.72;46.93;93244.28;4946006;28;20046;-76
2023/10/20 11:13:25;;;;;;;13.60;5.75;;;;;;;17.85;46.86;93226.69;4972750;28;20181;-78
2023/10/20 11:19:55;;;;;;;17.77;4.78;;;;;;;18.41;45.83;93266.75;4951901;28;20579;-78
2023/10/20 11:23:24;;;;;;;12.10;4.18;;;;;;;18.42;45.22;93241.38;4946002;28;20389;-77
2023/10/20 11:26:35;;;;;;;11.52;4.70;;;;;;;18.41;44.71;93220.97;4957169;28;20054;-79
2023/10/20 11:29:53;;;;;;;15.88;4.90;;;;;;;18.70;44.24;93248.81;4945198;28;20288;-78
2023/10/20 11:33:00;;;;;;;16.98;4.65;;;;;;;18.61;43.45;93232.22;4941184;28;20046;-78
2023/10/20 11:35:59;;;;;;;12.32;4.05;;;;;;;18.91;43.28;93248.19;4956012;28;20300;-78
2023/10/20 11:38:54;;;;;;;15.02;4.07;;;;;;;18.89;43.79;93219.69;4937672;28;20057;-78
2023/10/20 11:41:49;;;;;;;14.35;4.57;;;;;;;19.17;41.87;93239.78;4946407;28;20046;-78
2023/10/20 11:44:55;;;;;;;11.50;4.35;;;;;;;19.09;42.63;93244.41;4955391;28;20608;-78
2023/10/20 11:47:54;;;;;;;19.70;4.70;;;;;;;19.12;41.14;93203.19;4948051;28;20105;-78
2023/10/20 11:51:00;;;;;;;20.15;4.38;;;;;;;19.32;41.31;93242.16;4947310;28;20050;-78
2023/10/20 11:54:14;;;;;;;13.60;4.28;;;;;;;19.05;41.45;93188.94;4937300;28;20517;-79
2023/10/20 11:57:52;;;;;;;13.40;4.20;;;;;;;19.44;41.05;93227.56;4955153;28;20049;-78
2023/10/20 12:00:57;;;;;;;16.67;4.72;;;;;;;19.53;40.30;93200.22;4966123;28;20042;-78
2023/10/20 12:03:56;;;;;;;16.75;4.75;;;;;;;19.60;41.14;93219.13;4923113;28;20043;-78
2023/10/20 12:07:14;;;;;;;12.02;4.57;;;;;;;19.51;41.54;93210.63;4960871;28;20042;-78
2023/10/20 12:10:50;;;;;;;12.55;4.82;;;;;;;19.91;40.22;93223.75;4949875;28;20528;-78
2023/10/20 12:13:59;;;;;;;11.82;4.03;;;;;;;19.93;39.81;93196.41;4935872;28;20112;-79
2023/10/20 12:17:17;;;;;;;16.50;4.03;;;;;;;19.81;38.06;93215.66;4957751;28;20109;-78
2023/10/20 12:20:33;;;;;;;15.32;4.53;;;;;;;20.24;41.88;93198.31;4965597;28;20139;-76
2023/10/20 12:23:48;;;;;;;16.40;3.78;;;;;;;20.26;38.99;93196.00;4948121;28;20081;-79
2023/10/20 12:26:49;;;;;;;14.48;3.47;;;;;;;20.10;38.06;93179.41;4949678;28;20066;-78
2023/10/20 12:30:02;;;;;;;12.68;4.53;;;;;;;20.29;37.81;93205.28;4961632;28;20520;-78
2023/10/20 12:33:13;;;;;;;18.05;4.30;;;;;;;20.45;37.93;93200.19;4953497;28;20060;-76
2023/10/20 12:36:21;;;;;;;17.95;4.60;;;;;;;20.29;37.59;93162.06;4958233;28;20042;-80
2023/10/20 12:39:31;;;;;;;15.52;3.75;;;;;;;20.63;37.33;93209.03;4973556;28;20074;-78
2023/10/20 12:42:26;;;;;;;16.10;5.22;;;;;;;20.69;36.75;93201.28;4944223;28;20138;-79
2023/10/20 12:45:41;;;;;;;16.08;3.85;;;;;;;20.72;36.56;93203.22;4950415;28;20046;-78
2023/10/20 12:49:02;;;;;;;12.68;3.90;;;;;;;20.27;35.88;93131.97;4967426;28;20031;-78
2023/10/20 12:52:08;;;;;;;15.57;3.67;;;;;;;20.85;35.01;93205.09;4959837;28;20138;-77
2023/10/20 12:55:08;;;;;;;9.43;3.58;;;;;;;20.86;34.90;93190.44;4965966;28;20042;-78
2023/10/20 12:58:28;;;;;;;17.42;4.05;;;;;;;19.99;35.39;93032.94;4960461;28;20584;-76
2023/10/20 13:01:22;;;;;;;9.15;2.80;;;;;;;21.04;34.44;93179.56;4968573;28;20074;-78
2023/10/20 13:04:14;;;;;;;10.27;2.75;;;;;;;21.14;32.88;93202.28;4924522;28;20051;-78
2023/10/20 13:07:33;;;;;;;15.10;3.05;;;;;;;21.36;32.18;93190.94;4981573;28;20062;-79
2023/10/20 13:10:38;;;;;;;19.10;3.20;;;;;;;21.30;31.91;93170.16;4950059;28;20038;-78
2023/10/20 13:14:03;;;;;;;17.40;3.60;;;;;;;21.44;30.91;93186.28;4963995;28;20046;-79
2023/10/20 13:17:06;;;;;;;12.15;3.45;;;;;;;21.64;33.31;93189.28;4949494;28;20372;-78
2023/10/20 13:20:03;;;;;;;10.90;2.03;;;;;;;21.41;31.27;93155.38;4966503;28;20045;-79
2023/10/20 13:22:56;;;;;;;10.85;2.63;;;;;;;21.51;29.49;93185.47;4979841;28;20026;-78
2023/10/20 13:26:15;;;;;;;10.57;2.15;;;;;;;21.63;30.33;93166.84;4958490;28;20050;-77
2023/10/20 13:29:11;;;;;;;14.68;2.65;;;;;;;21.84;30.39;93176.75;4967699;28;20049;-79
2023/10/20 13:32:02;;;;;;;10.20;2.47;;;;;;;21.99;29.91;93172.75;4983631;28;20504;-79
2023/10/20 13:35:03;;;;;;;11.63;2.33;;;;;;;21.92;30.60;93134.91;4987912;28;20268;-78
2023/10/20 13:37:54;;;;;;;11.80;2.38;;;;;;;22.17;31.21;93165.22;4975079;28;20077;-79
2023/10/20 13:40:43;;;;;;;25.55;3.15;;;;;;;22.38;28.16;93204.94;4973967;28;20133;-79
2023/10/20 13:43:32;;;;;;;13.35;2.35;;;;;;;22.19;30.04;93192.66;4952393;28;20553;-79
2023/10/20 13:46:25;;;;;;;12.00;3.05;;;;;;;22.19;29.24;93202.75;4948190;28;20110;-79
2023/10/20 13:49:29;;;;;;;15.90;2.92;;;;;;;22.28;29.95;93205.78;4980962;28;20042;-75
2023/10/20 13:52:37;;;;;;;6.10;2.13;;;;;;;22.19;28.92;93181.84;4953878;28;20043;-79
2023/10/20 13:55:42;;;;;;;10.52;2.13;;;;;;;22.50;29.47;93206.34;4976251;28;20108;-78
2023/10/20 13:58:42;;;;;;;9.88;2.30;;;;;;;22.26;29.15;93195.34;4956172;28;20524;-78
2023/10/20 14:01:30;;;;;;;12.20;3.15;;;;;;;22.18;30.77;93164.06;4965123;28;20050;-78
2023/10/20 14:04:23;;;;;;;10.25;2.60;;;;;;;22.44;30.26;93191.72;4965738;28;20484;-78
2023/10/20 14:07:14;;;;;;;11.70;2.47;;;;;;;22.24;29.14;93197.69;4939054;28;20210;-79
2023/10/20 14:10:42;;;;;;;14.85;2.75;;;;;;;22.22;29.40;93220.94;4952524;28;20057;-77
2023/10/20 14:13:38;;;;;;;13.57;2.90;;;;;;;21.94;29.47;93186.72;4962619;28;20089;-77
2023/10/20 14:16:57;;;;;;;12.75;3.20;;;;;;;22.18;29.00;93199.28;4934326;28;20478;-79
2023/10/20 14:19:57;;;;;;;11.50;3.22;;;;;;;22.11;28.98;93185.78;4973905;28;20030;-80
2023/10/20 14:23:13;;;;;;;9.43;2.55;;;;;;;22.23;29.23;93223.25;4931361;28;20065;-78
2023/10/20 14:26:33;;;;;;;9.43;2.38;;;;;;;22.05;28.27;93206.34;4956524;28;20093;-79
2023/10/20 14:29:30;;;;;;;9.13;2.38;;;;;;;22.07;29.68;93220.25;4952770;28;20045;-79
2023/10/20 14:32:35;;;;;;;11.50;2.58;;;;;;;22.08;28.56;93226.44;4960226;28;20042;-79
2023/10/20 14:35:24;;;;;;;11.98;3.03;;;;;;;21.94;28.93;93192.13;4965561;28;20123;-79
2023/10/20 14:38:33;;;;;;;12.45;2.50;;;;;;;22.06;29.48;93234.19;4943766;28;20027;-79
2023/10/20 14:41:45;;;;;;;13.93;2.72;;;;;;;22.07;29.46;93208.66;4949040;28;20123;-79
2023/10/20 14:44:50;;;;;;;13.75;2.63;;;;;;;22.15;28.82;93219.00;4947454;28;20424;-77
2023/10/20 14:47:55;;;;;;;13.32;2.30;;;;;;;22.22;29.45;93197.31;4967504;28;20042;-80
2023/10/20 14:51:04;;;;;;;12.00;2.65;;;;;;;21.97;29.71;93187.84;4954081;28;20134;-79
2023/10/20 14:53:48;;;;;;;7.13;2.85;;;;;;;21.94;28.93;93205.69;4938184;28;20030;-80
2023/10/20 14:56:49;;;;;;;16.30;2.67;;;;;;;21.81;28.36;93221.59;4973123;28;20042;-78
2023/10/20 14:59:58;;;;;;;15.95;2.63;;;;;;;21.75;29.94;93201.56;4951158;28;20044;-76
2023/10/20 15:03:03;;;;;;;10.10;2.30;;;;;;;21.49;29.88;93155.34;4971732;28;20512;-80
2023/10/20 15:05:56;;;;;;;9.98;2.28;;;;;;;21.90;30.69;93229.31;4962047;28;20042;-80
2023/10/20 15:08:51;;;;;;;13.73;2.72;;;;;;;21.78;30.84;93206.19;4957620;28;20038;-80
2023/10/20 15:11:53;;;;;;;10.00;2.58;;;;;;;21.87;31.12;93235.50;4955568;28;20552;-78
2023/10/20 15:14:53;;;;;;;16.48;2.28;;;;;;;21.18;30.21;93143.56;4962138;28;20064;-80
2023/10/20 15:17:41;;;;;;;21.05;3.22;;;;;;;21.74;29.74;93215.50;4964595;28;20037;-80
2023/10/20 15:20:57;;;;;;;11.02;2.03;;;;;;;21.68;30.63;93219.78;4969476;28;20049;-79
2023/10/20 15:24:11;;;;;;;22.45;4.47;;;;;;;21.65;30.45;93240.31;4975109;28;20054;-78
2023/10/20 15:27:06;;;;;;;11.68;2.25;;;;;;;21.73;31.23;93228.25;4957304;28;20052;-80
2023/10/20 15:30:06;;;;;;;8.93;2.90;;;;;;;21.32;30.35;93244.28;4956356;28;20049;-78
2023/10/20 15:33:10;;;;;;;15.70;3.30;;;;;;;21.16;31.26;93216.19;4971498;28;20688;-77
2023/10/20 15:36:14;;;;;;;13.85;2.88;;;;;;;21.46;29.36;93249.63;4971819;28;20050;-79
2023/10/20 15:39:10;;;;;;;13.95;2.47;;;;;;;21.03;30.22;93219.34;4977489;28;20030;-80